createdAt,value
2022-08-03T00:00:51.521Z,21.19
2022-08-03T00:03:40.467Z,21.32
2022-08-03T00:06:35.025Z,21.31
2022-08-03T00:09:25.419Z,21.33
2022-08-03T00:12:24.131Z,21.35
2022-08-03T00:15:16.515Z,21.21
2022-08-03T00:18:05.627Z,21.17
2022-08-03T00:20:54.209Z,21.09
2022-08-03T00:23:52.219Z,21.00
2022-08-03T00:26:41.152Z,21.11
2022-08-03T00:29:29.732Z,21.00
2022-08-03T00:32:18.213Z,21.07
2022-08-03T00:35:18.072Z,20.92
2022-08-03T00:38:17.846Z,21.03
2022-08-03T00:41:07.775Z,20.89
2022-08-03T00:43:56.283Z,20.84
2022-08-03T00:46:45.129Z,20.86
2022-08-03T00:49:33.712Z,20.84
2022-08-03T00:52:22.494Z,20.78
2022-08-03T00:55:11.993Z,20.54
2022-08-03T00:58:05.045Z,20.62
2022-08-03T01:00:53.702Z,20.41
2022-08-03T01:03:42.772Z,20.65
2022-08-03T01:06:37.297Z,20.47
2022-08-03T01:09:34.656Z,20.34
2022-08-03T01:12:26.342Z,20.47
2022-08-03T01:15:22.782Z,20.42
2022-08-03T01:18:16.108Z,20.42
2022-08-03T01:21:09.959Z,20.22
2022-08-03T01:24:16.319Z,20.25
2022-08-03T01:27:08.726Z,20.33
2022-08-03T01:30:05.700Z,20.17
2022-08-03T01:33:00.833Z,20.17
2022-08-03T01:35:53.497Z,20.14
2022-08-03T01:38:44.808Z,20.11
2022-08-03T01:41:41.461Z,20.20
2022-08-03T01:44:32.240Z,20.21
2022-08-03T01:47:23.935Z,20.08
2022-08-03T01:50:13.549Z,20.02
2022-08-03T01:53:03.422Z,19.81
2022-08-03T01:55:55.692Z,19.97
2022-08-03T01:58:46.889Z,19.88
2022-08-03T02:02:16.013Z,19.96
2022-08-03T02:04:48.330Z,19.92
2022-08-03T02:07:37.622Z,19.87
2022-08-03T02:10:34.477Z,19.83
2022-08-03T02:13:25.438Z,19.75
2022-08-03T02:16:14.956Z,19.74
2022-08-03T02:19:06.420Z,19.60
2022-08-03T02:22:10.643Z,19.81
2022-08-03T02:24:59.240Z,19.76
2022-08-03T02:27:52.831Z,19.75
2022-08-03T02:30:44.176Z,19.74
2022-08-03T02:33:35.503Z,19.73
2022-08-03T02:36:28.439Z,19.77
2022-08-03T02:39:23.216Z,19.67
2022-08-03T02:42:13.926Z,19.61
2022-08-03T02:45:05.481Z,19.54
2022-08-03T02:47:58.296Z,19.52
2022-08-03T02:50:48.083Z,19.54
2022-08-03T02:53:37.361Z,19.46
2022-08-03T02:56:28.025Z,19.53
2022-08-03T02:59:18.455Z,19.45
2022-08-03T03:02:07.158Z,19.46
2022-08-03T03:05:52.534Z,19.26
2022-08-03T03:08:06.114Z,19.44
2022-08-03T03:11:09.008Z,19.39
2022-08-03T03:13:59.725Z,19.00
2022-08-03T03:16:51.821Z,19.20
2022-08-03T03:19:46.485Z,19.22
2022-08-03T03:22:35.231Z,19.15
2022-08-03T03:25:23.772Z,19.27
2022-08-03T03:28:12.471Z,19.30
2022-08-03T03:31:02.623Z,19.27
2022-08-03T03:33:51.279Z,19.13
2022-08-03T03:36:40.905Z,19.16
2022-08-03T03:39:29.670Z,18.98
2022-08-03T03:42:18.220Z,19.11
2022-08-03T03:45:08.118Z,19.13
2022-08-03T03:47:58.059Z,19.20
2022-08-03T03:50:46.828Z,19.12
2022-08-03T03:53:35.399Z,19.11
2022-08-03T03:56:24.191Z,19.09
2022-08-03T03:59:12.699Z,19.05
2022-08-03T04:02:01.298Z,18.98
2022-08-03T04:05:08.754Z,18.79
2022-08-03T04:08:17.611Z,18.83
2022-08-03T04:11:12.709Z,18.78
2022-08-03T04:14:04.402Z,18.78
2022-08-03T04:16:56.339Z,18.68
2022-08-03T04:19:47.712Z,18.64
2022-08-03T04:22:39.666Z,18.51
2022-08-03T04:25:30.295Z,18.67
2022-08-03T04:28:30.530Z,18.53
2022-08-03T04:31:23.574Z,18.86
2022-08-03T04:34:12.209Z,18.86
2022-08-03T04:37:03.089Z,18.87
2022-08-03T04:39:56.956Z,18.86
2022-08-03T04:42:46.976Z,18.86
2022-08-03T04:45:35.902Z,18.89
2022-08-03T04:48:25.277Z,18.84
2022-08-03T04:51:14.460Z,19.00
2022-08-03T04:54:03.031Z,19.15
2022-08-03T04:56:52.961Z,19.27
2022-08-03T04:59:41.540Z,19.19
2022-08-03T05:02:30.550Z,19.37
2022-08-03T05:05:19.173Z,19.30
2022-08-03T05:08:11.177Z,19.49
2022-08-03T05:10:59.873Z,19.51
2022-08-03T05:13:49.738Z,19.55
2022-08-03T05:16:38.341Z,19.55
2022-08-03T05:19:26.930Z,19.68
2022-08-03T05:22:15.630Z,19.76
2022-08-03T05:25:05.222Z,19.74
2022-08-03T05:27:53.841Z,19.94
2022-08-03T05:30:43.758Z,19.99
2022-08-03T05:33:32.467Z,20.20
2022-08-03T05:36:20.974Z,20.35
2022-08-03T05:39:09.568Z,20.48
2022-08-03T05:41:58.104Z,20.59
2022-08-03T05:44:46.672Z,20.71
2022-08-03T05:47:36.516Z,20.85
2022-08-03T05:50:25.092Z,21.03
2022-08-03T05:53:13.658Z,21.14
2022-08-03T05:56:02.766Z,21.28
2022-08-03T05:59:22.464Z,21.44
2022-08-03T06:02:10.603Z,21.58
2022-08-03T06:05:00.517Z,21.45
2022-08-03T06:07:49.099Z,21.53
2022-08-03T06:10:38.332Z,21.86
2022-08-03T06:13:27.143Z,21.77
2022-08-03T06:16:15.786Z,22.15
2022-08-03T06:19:04.323Z,22.39
2022-08-03T06:21:54.321Z,22.52
2022-08-03T06:24:48.177Z,22.86
2022-08-03T06:27:42.425Z,23.08
2022-08-03T06:30:31.082Z,23.32
2022-08-03T06:33:19.672Z,23.54
2022-08-03T06:36:08.467Z,23.71
2022-08-03T06:39:02.187Z,23.86
2022-08-03T06:41:50.795Z,23.98
2022-08-03T06:44:39.721Z,24.15
2022-08-03T06:47:28.460Z,24.40
2022-08-03T06:50:18.520Z,24.56
2022-08-03T06:53:10.319Z,24.90
2022-08-03T06:56:09.836Z,25.21
2022-08-03T06:58:58.337Z,25.26
2022-08-03T07:01:47.066Z,25.49
2022-08-03T07:04:35.648Z,25.62
2022-08-03T07:07:24.156Z,25.75
2022-08-03T07:10:12.789Z,26.02
2022-08-03T07:13:02.742Z,26.13
2022-08-03T07:15:55.728Z,26.27
2022-08-03T07:18:45.051Z,26.77
2022-08-03T07:21:33.648Z,26.74
2022-08-03T07:24:22.192Z,27.15
2022-08-03T07:27:10.977Z,27.43
2022-08-03T07:30:00.923Z,27.57
2022-08-03T07:32:50.813Z,27.88
2022-08-03T07:35:39.522Z,28.11
2022-08-03T07:38:28.131Z,28.44
2022-08-03T07:41:16.990Z,28.65
2022-08-03T07:44:05.976Z,28.89
2022-08-03T07:46:55.941Z,29.07
2022-08-03T07:49:45.405Z,29.18
2022-08-03T07:52:49.456Z,29.54
2022-08-03T07:55:38.146Z,29.70
2022-08-03T07:58:26.666Z,29.87
2022-08-03T08:01:15.361Z,29.91
2022-08-03T08:04:05.639Z,30.08
2022-08-03T08:06:54.211Z,30.25
2022-08-03T08:09:42.796Z,30.44
2022-08-03T08:12:31.372Z,29.98
2022-08-03T08:15:20.073Z,30.68
2022-08-03T08:18:08.618Z,30.83
2022-08-03T08:20:58.821Z,31.01
2022-08-03T08:23:56.235Z,31.14
2022-08-03T08:26:46.490Z,31.27
2022-08-03T08:29:35.066Z,31.47
2022-08-03T08:32:23.640Z,31.82
2022-08-03T08:35:12.741Z,31.86
2022-08-03T08:38:05.733Z,31.92
2022-08-03T08:40:56.682Z,32.07
2022-08-03T08:43:45.238Z,32.14
2022-08-03T08:46:34.550Z,32.47
2022-08-03T08:49:25.014Z,32.66
2022-08-03T08:52:25.477Z,32.77
2022-08-03T08:55:23.436Z,33.09
2022-08-03T08:58:13.028Z,33.15
2022-08-03T09:01:10.188Z,33.24
2022-08-03T09:03:58.794Z,33.27
2022-08-03T09:07:04.717Z,33.33
2022-08-03T09:10:05.354Z,33.49
2022-08-03T09:13:02.563Z,33.70
2022-08-03T09:16:10.683Z,33.84
2022-08-03T09:19:13.502Z,33.88
2022-08-03T09:22:09.677Z,33.91
2022-08-03T09:25:22.656Z,33.72
2022-08-03T09:28:11.449Z,34.08
2022-08-03T09:31:01.171Z,34.11
2022-08-03T09:33:50.032Z,34.24
2022-08-03T09:36:40.423Z,34.15
2022-08-03T09:39:41.067Z,34.26
2022-08-03T09:42:30.833Z,34.29
2022-08-03T09:45:28.861Z,34.34
2022-08-03T09:48:25.224Z,34.44
2022-08-03T09:52:04.994Z,34.61
2022-08-03T09:54:27.723Z,34.32
2022-08-03T09:57:23.877Z,34.41
2022-08-03T10:00:14.835Z,34.51
2022-08-03T10:03:06.464Z,34.75
2022-08-03T10:05:59.597Z,34.76
2022-08-03T10:08:48.867Z,34.91
2022-08-03T10:11:41.830Z,35.14
2022-08-03T10:14:32.503Z,35.36
2022-08-03T10:17:21.409Z,35.52
2022-08-03T10:20:12.862Z,35.53
2022-08-03T10:23:01.464Z,35.33
2022-08-03T10:25:54.154Z,35.24
2022-08-03T10:28:48.607Z,35.23
2022-08-03T10:31:55.894Z,35.04
2022-08-03T10:34:48.335Z,35.08
2022-08-03T10:37:56.551Z,34.99
2022-08-03T10:40:49.448Z,35.27
2022-08-03T10:43:44.933Z,35.19
2022-08-03T10:46:34.862Z,35.27
2022-08-03T10:49:34.043Z,35.80
2022-08-03T10:52:33.768Z,35.95
2022-08-03T10:55:53.105Z,36.00
2022-08-03T10:58:57.120Z,36.13
2022-08-03T11:01:59.902Z,36.16
2022-08-03T11:05:28.437Z,36.19
2022-08-03T11:08:25.455Z,36.28
2022-08-03T11:11:29.372Z,35.86
2022-08-03T11:14:21.354Z,35.98
2022-08-03T11:17:14.416Z,35.88
2022-08-03T11:20:05.037Z,35.49
2022-08-03T11:22:56.695Z,35.87
2022-08-03T11:26:10.749Z,35.50
2022-08-03T11:29:30.818Z,35.88
2022-08-03T11:32:53.034Z,36.05
2022-08-03T11:35:59.493Z,36.13
2022-08-03T11:39:13.497Z,36.18
2022-08-03T11:42:38.789Z,36.22
2022-08-03T11:45:29.001Z,36.29
2022-08-03T11:48:18.095Z,36.30
2022-08-03T11:51:08.139Z,36.26
2022-08-03T11:53:57.650Z,36.29
2022-08-03T11:56:48.280Z,36.71
2022-08-03T11:59:38.768Z,36.65
2022-08-03T12:02:28.930Z,37.01
2022-08-03T12:05:18.970Z,36.85
2022-08-03T12:08:08.129Z,36.99
2022-08-03T12:10:58.111Z,36.97
2022-08-03T12:14:45.802Z,36.68
2022-08-03T12:16:56.529Z,36.70
2022-08-03T12:19:46.531Z,36.81
2022-08-03T12:22:37.197Z,37.00
2022-08-03T12:25:39.383Z,37.24
2022-08-03T12:28:37.021Z,37.09
2022-08-03T12:31:26.897Z,37.15
2022-08-03T12:34:15.565Z,37.43
2022-08-03T12:37:22.003Z,37.54
2022-08-03T12:40:20.601Z,37.28
2022-08-03T12:43:14.735Z,37.06
2022-08-03T12:46:11.140Z,37.20
2022-08-03T12:49:09.635Z,37.09
2022-08-03T12:52:03.864Z,37.30
2022-08-03T12:54:57.745Z,37.20
2022-08-03T12:57:46.219Z,36.96
2022-08-03T13:00:35.278Z,37.21
2022-08-03T13:03:41.808Z,37.37
2022-08-03T13:06:31.414Z,37.54
2022-08-03T13:09:20.046Z,37.54
2022-08-03T13:12:12.744Z,37.45
2022-08-03T13:15:01.932Z,36.68
2022-08-03T13:17:50.464Z,37.18
2022-08-03T13:20:39.008Z,37.33
2022-08-03T13:23:27.544Z,37.33
2022-08-03T13:26:16.205Z,37.36
2022-08-03T13:29:06.260Z,37.43
2022-08-03T13:31:54.905Z,37.12
2022-08-03T13:34:43.613Z,37.01
2022-08-03T13:37:33.002Z,36.58
2022-08-03T13:40:23.582Z,36.87
2022-08-03T13:43:12.651Z,36.82
2022-08-03T13:46:02.646Z,36.12
2022-08-03T13:48:51.195Z,36.57
2022-08-03T13:51:40.229Z,36.87
2022-08-03T13:54:30.039Z,37.05
2022-08-03T13:58:11.389Z,36.42
2022-08-03T14:00:29.535Z,36.91
2022-08-03T14:03:19.745Z,36.94
2022-08-03T14:06:08.636Z,37.07
2022-08-03T14:09:00.570Z,37.11
2022-08-03T14:12:08.336Z,37.23
2022-08-03T14:14:59.754Z,37.05
2022-08-03T14:17:50.303Z,37.04
2022-08-03T14:20:50.019Z,37.09
2022-08-03T14:23:42.950Z,37.08
2022-08-03T14:26:33.289Z,37.24
2022-08-03T14:29:21.865Z,36.74
2022-08-03T14:32:13.290Z,36.83
2022-08-03T14:35:02.210Z,36.86
2022-08-03T14:37:52.740Z,36.79
2022-08-03T14:40:41.458Z,36.45
2022-08-03T14:43:33.727Z,36.16
2022-08-03T14:46:22.872Z,36.46
2022-08-03T14:50:33.225Z,36.30
2022-08-03T14:52:19.921Z,36.29
2022-08-03T14:55:10.958Z,36.26
2022-08-03T14:58:02.532Z,36.06
2022-08-03T15:00:51.946Z,35.86
2022-08-03T15:03:41.093Z,35.91
2022-08-03T15:06:29.820Z,36.03
2022-08-03T15:09:23.891Z,36.07
2022-08-03T15:12:14.141Z,36.16
2022-08-03T15:15:02.644Z,35.97
2022-08-03T15:18:00.035Z,36.02
2022-08-03T15:20:50.733Z,36.13
2022-08-03T15:23:39.427Z,36.31
2022-08-03T15:26:35.229Z,36.35
2022-08-03T15:30:05.207Z,36.60
2022-08-03T15:32:36.238Z,36.63
2022-08-03T15:35:24.811Z,36.53
2022-08-03T15:38:13.325Z,36.22
2022-08-03T15:41:01.839Z,36.42
2022-08-03T15:43:52.703Z,36.31
2022-08-03T15:46:42.612Z,36.21
2022-08-03T15:49:31.112Z,35.93
2022-08-03T15:52:19.748Z,35.99
2022-08-03T15:55:09.674Z,36.02
2022-08-03T15:59:10.513Z,35.95
2022-08-03T16:01:17.727Z,36.03
2022-08-03T16:04:09.503Z,36.10
2022-08-03T16:06:58.088Z,36.06
2022-08-03T16:09:46.588Z,36.02
2022-08-03T16:12:35.157Z,35.79
2022-08-03T16:15:23.797Z,35.71
2022-08-03T16:18:12.382Z,35.70
2022-08-03T16:21:02.327Z,35.61
2022-08-03T16:23:50.989Z,35.64
2022-08-03T16:26:39.764Z,35.48
2022-08-03T16:29:28.331Z,35.48
2022-08-03T16:32:17.208Z,35.39
2022-08-03T16:35:06.780Z,35.35
2022-08-03T16:37:57.108Z,35.24
2022-08-03T16:40:45.796Z,35.28
2022-08-03T16:43:35.664Z,35.30
2022-08-03T16:46:24.385Z,35.29
2022-08-03T16:49:13.199Z,35.24
2022-08-03T16:52:21.781Z,35.33
2022-08-03T16:55:15.628Z,35.09
2022-08-03T16:58:04.845Z,35.22
2022-08-03T17:00:54.043Z,35.18
2022-08-03T17:04:01.765Z,35.01
2022-08-03T17:06:52.562Z,34.94
2022-08-03T17:09:41.102Z,34.98
2022-08-03T17:12:31.075Z,34.95
2022-08-03T17:15:20.053Z,34.81
2022-08-03T17:18:29.678Z,34.65
2022-08-03T17:21:19.124Z,34.91
2022-08-03T17:24:12.023Z,34.68
2022-08-03T17:27:03.176Z,34.74
2022-08-03T17:29:59.752Z,34.82
2022-08-03T17:32:56.960Z,34.77
2022-08-03T17:35:47.823Z,34.52
2022-08-03T17:38:39.926Z,34.43
2022-08-03T17:41:33.469Z,34.28
2022-08-03T17:44:31.954Z,34.55
2022-08-03T17:47:42.948Z,34.44
2022-08-03T17:50:37.782Z,34.38
2022-08-03T17:53:30.787Z,34.34
2022-08-03T17:56:38.825Z,34.17
2022-08-03T17:59:50.565Z,34.13
2022-08-03T18:03:05.059Z,34.03
2022-08-03T18:06:08.989Z,33.86
2022-08-03T18:09:05.243Z,33.73
2022-08-03T18:12:15.246Z,33.60
2022-08-03T18:15:08.434Z,33.52
2022-08-03T18:18:10.437Z,33.40
2022-08-03T18:21:04.636Z,33.30
2022-08-03T18:23:56.381Z,33.22
2022-08-03T18:26:49.722Z,33.10
2022-08-03T18:29:38.632Z,32.90
2022-08-03T18:32:28.059Z,32.89
2022-08-03T18:35:17.967Z,32.78
2022-08-03T18:38:10.346Z,32.53
2022-08-03T18:40:58.989Z,32.57
2022-08-03T18:44:08.348Z,32.42
2022-08-03T18:47:16.388Z,32.26
2022-08-03T18:50:14.532Z,32.04
2022-08-03T18:53:16.422Z,31.86
2022-08-03T18:56:13.427Z,31.52
2022-08-03T18:59:11.519Z,31.54
2022-08-03T19:02:09.251Z,31.37
2022-08-03T19:05:05.054Z,31.19
2022-08-03T19:07:59.789Z,31.04
2022-08-03T19:11:00.474Z,30.87
2022-08-03T19:13:50.851Z,30.67
2022-08-03T19:16:41.932Z,30.58
2022-08-03T19:19:44.470Z,30.48
2022-08-03T19:22:33.940Z,30.17
2022-08-03T19:25:34.267Z,30.16
2022-08-03T19:28:29.961Z,29.99
2022-08-03T19:31:18.860Z,29.81
2022-08-03T19:34:09.501Z,29.64
2022-08-03T19:37:00.028Z,29.44
2022-08-03T19:39:56.547Z,29.33
2022-08-03T19:42:48.303Z,29.17
2022-08-03T19:46:04.485Z,29.06
2022-08-03T19:48:53.948Z,28.97
2022-08-03T19:52:00.594Z,28.85
2022-08-03T19:54:54.618Z,28.75
2022-08-03T19:57:45.880Z,28.62
2022-08-03T20:00:37.070Z,28.30
2022-08-03T20:03:43.112Z,28.41
2022-08-03T20:06:32.688Z,28.26
2022-08-03T20:09:21.809Z,28.11
2022-08-03T20:12:11.629Z,28.09
2022-08-03T20:15:00.886Z,27.91
2022-08-03T20:17:55.965Z,27.81
2022-08-03T20:20:51.513Z,27.69
2022-08-03T20:23:41.145Z,27.66
2022-08-03T20:26:53.763Z,27.46
2022-08-03T20:30:06.583Z,27.41
2022-08-03T20:32:55.432Z,27.08
2022-08-03T20:35:45.976Z,27.16
2022-08-03T20:38:43.609Z,27.14
2022-08-03T20:41:32.515Z,27.07
2022-08-03T20:47:29.709Z,26.62
2022-08-03T20:50:22.004Z,26.61
2022-08-03T20:53:12.074Z,26.47
2022-08-03T20:56:02.950Z,26.53
2022-08-03T20:58:52.255Z,26.39
2022-08-03T21:01:40.774Z,26.39
2022-08-03T21:04:33.007Z,26.40
2022-08-03T21:07:23.069Z,25.44
2022-08-03T21:10:15.388Z,26.34
2022-08-03T21:13:07.319Z,26.96
2022-08-03T21:13:18.147Z,26.19
2022-08-03T21:16:13.743Z,26.19
2022-08-03T21:19:04.867Z,26.14
2022-08-03T21:21:53.944Z,26.17
2022-08-03T21:24:43.219Z,26.19
2022-08-03T21:27:32.553Z,26.09
2022-08-03T21:30:23.580Z,26.00
2022-08-03T21:33:12.122Z,26.14
2022-08-03T21:36:01.831Z,25.96
2022-08-03T21:38:55.946Z,26.08
2022-08-03T21:41:45.466Z,26.03
2022-08-03T21:44:34.045Z,25.94
2022-08-03T21:47:25.792Z,25.85
2022-08-03T21:50:15.164Z,25.79
2022-08-03T21:53:04.976Z,25.75
2022-08-03T21:55:56.532Z,25.87
2022-08-03T21:58:50.965Z,25.69
2022-08-03T22:01:42.727Z,25.92
2022-08-03T22:04:45.872Z,25.83
2022-08-03T22:07:41.743Z,25.77
2022-08-03T22:10:30.359Z,25.76
2022-08-03T22:13:44.249Z,25.67
2022-08-03T22:16:27.826Z,25.60
2022-08-03T22:19:16.307Z,25.51
2022-08-03T22:22:07.577Z,25.33
2022-08-03T22:24:59.337Z,25.44
2022-08-03T22:27:48.164Z,25.40
2022-08-03T22:30:37.318Z,25.38
2022-08-03T22:33:28.039Z,24.98
2022-08-03T22:36:20.091Z,25.20
2022-08-03T22:39:10.030Z,25.19
2022-08-03T22:41:59.105Z,25.18
2022-08-03T22:44:50.471Z,25.16
2022-08-03T22:47:40.963Z,25.16
2022-08-03T22:50:33.429Z,24.93
2022-08-03T22:53:23.153Z,24.93
2022-08-03T22:56:13.089Z,24.98
2022-08-03T22:59:01.580Z,24.92
2022-08-03T23:02:20.211Z,24.93
2022-08-03T23:05:11.040Z,24.92
2022-08-03T23:08:22.604Z,24.82
2022-08-03T23:11:11.758Z,24.78
2022-08-03T23:14:01.791Z,24.84
2022-08-03T23:16:54.953Z,24.76
2022-08-03T23:19:44.759Z,24.58
2022-08-03T23:22:34.067Z,24.48
2022-08-03T23:25:24.594Z,24.62
2022-08-03T23:28:15.440Z,24.52
2022-08-03T23:31:05.540Z,24.54
2022-08-03T23:34:16.639Z,24.54
2022-08-03T23:37:06.773Z,24.51
2022-08-03T23:39:56.043Z,24.27
2022-08-03T23:42:45.364Z,24.35
2022-08-03T23:45:35.992Z,24.36
2022-08-03T23:48:26.144Z,24.26
2022-08-03T23:51:20.903Z,24.25
2022-08-03T23:54:18.479Z,24.29
2022-08-03T23:57:10.364Z,24.16
